Terminal Aerodrome Forecast
Issued by NWS

Home | Current Version | Previous Version | Text Only | Print | Product List | Glossary On
Versions: 1 2 3 4 5 6 7 8 9 10 11 12 13 14 15 16 17 18
000
FTUS41 KBGM 222321
TAFRME
TAF
KRME 222321Z 2300/2324 28009KT P6SM BKN025 OVC040
     FM230700 29005KT P6SM BKN040 OVC060
     FM231900 25006KT P6SM SCT050 BKN100=

USA.gov is the U.S. government's official web portal to all federal, state and local government web resources and services.